Time;durP1;ratioP1;P1;durP2;ratioP2;P2;SDS_P1;SDS_P2;PMS_P1;PMS_P2;Temp;Humidity;BMP_temperature;BMP_pressure;BME280_temperature;BME280_humidity;BME280_pressure;Samples;Min_cycle;Max_cycle;Signal;HPM_P1;HPM_P2
2022/03/13 00:02:19;;;;;;;690.35;341.30;;;;;;;;;;5091880;28;20049;-71
2022/03/13 00:04:49;;;;;;;683.22;340.05;;;;;;;;;;5093837;28;20020;-71
2022/03/13 00:07:21;;;;;;;664.88;309.90;;;;;;;;;;5093426;28;20476;-72
2022/03/13 00:09:51;;;;;;;662.53;326.80;;;;;;;;;;5093866;28;20456;-71
2022/03/13 00:12:26;;;;;;;648.55;319.05;;;;;;;;;;5091920;28;20048;-71
2022/03/13 00:14:55;;;;;;;641.28;309.98;;;;;;;;;;5093195;28;20101;-71
2022/03/13 00:17:24;;;;;;;678.53;326.45;;;;;;;;;;5092105;28;20028;-71
2022/03/13 00:19:50;;;;;;;628.55;298.85;;;;;;;;;;5093360;28;20028;-71
2022/03/13 00:22:16;;;;;;;620.03;300.27;;;;;;;;;;5092871;28;20070;-71
2022/03/13 00:24:43;;;;;;;593.50;286.33;;;;;;;;;;5093265;28;20044;-71
2022/03/13 00:27:10;;;;;;;558.03;265.25;;;;;;;;;;5093224;28;20138;-71
2022/03/13 00:29:36;;;;;;;547.75;273.52;;;;;;;;;;5092841;28;20038;-71
2022/03/13 00:32:03;;;;;;;558.10;265.95;;;;;;;;;;5093482;28;20503;-71
2022/03/13 00:34:29;;;;;;;562.08;281.58;;;;;;;;;;5096028;28;20020;-71
2022/03/13 00:36:56;;;;;;;575.13;282.10;;;;;;;;;;5096957;28;20435;-71
2022/03/13 00:39:22;;;;;;;607.45;282.48;;;;;;;;;;5097179;28;20031;-71
2022/03/13 00:41:48;;;;;;;593.85;291.48;;;;;;;;;;5095809;28;20391;-71
2022/03/13 00:44:14;;;;;;;605.90;290.40;;;;;;;;;;5096898;28;20059;-71
2022/03/13 00:46:41;;;;;;;605.47;289.45;;;;;;;;;;5095783;28;20061;-71
2022/03/13 00:49:07;;;;;;;621.97;297.05;;;;;;;;;;5097098;28;20499;-71
2022/03/13 00:51:33;;;;;;;622.58;293.35;;;;;;;;;;5096598;28;20060;-71
2022/03/13 00:53:59;;;;;;;600.17;282.38;;;;;;;;;;5096973;28;20413;-71
2022/03/13 00:56:26;;;;;;;599.17;294.92;;;;;;;;;;5095710;28;20035;-72
2022/03/13 00:58:52;;;;;;;586.13;288.90;;;;;;;;;;5095705;28;20103;-71
2022/03/13 01:01:18;;;;;;;588.97;276.10;;;;;;;;;;5095623;28;20036;-72
2022/03/13 01:03:44;;;;;;;591.97;280.70;;;;;;;;;;5096401;28;20046;-71
2022/03/13 01:06:11;;;;;;;590.05;279.40;;;;;;;;;;5096848;28;20512;-71
2022/03/13 01:08:37;;;;;;;590.38;275.90;;;;;;;;;;5096758;28;20042;-71
2022/03/13 01:11:04;;;;;;;599.15;284.98;;;;;;;;;;5095912;28;20044;-71
2022/03/13 01:13:31;;;;;;;592.15;282.65;;;;;;;;;;5095282;28;20028;-71
2022/03/13 01:16:10;;;;;;;598.22;295.10;;;;;;;;;;5096607;28;20044;-71
2022/03/13 01:18:40;;;;;;;646.80;323.77;;;;;;;;;;5096196;28;20099;-72
2022/03/13 01:21:06;;;;;;;606.10;301.00;;;;;;;;;;5096521;28;20480;-71
2022/03/13 01:23:33;;;;;;;583.72;276.25;;;;;;;;;;5095166;28;20035;-71
2022/03/13 01:26:17;;;;;;;581.00;288.83;;;;;;;;;;5096109;28;20480;-71
2022/03/13 01:28:44;;;;;;;586.17;275.98;;;;;;;;;;5096268;28;20421;-71
2022/03/13 01:31:10;;;;;;;613.45;309.25;;;;;;;;;;5096569;28;20110;-72
2022/03/13 01:33:37;;;;;;;620.25;294.00;;;;;;;;;;5095817;28;20028;-71
2022/03/13 01:36:03;;;;;;;585.20;284.75;;;;;;;;;;5096246;28;20412;-72
2022/03/13 01:38:32;;;;;;;589.47;291.98;;;;;;;;;;5096075;28;20028;-71
2022/03/13 01:40:59;;;;;;;581.58;287.45;;;;;;;;;;5095671;28;20047;-71
2022/03/13 01:43:25;;;;;;;579.95;292.55;;;;;;;;;;5095838;28;20034;-71
2022/03/13 01:45:52;;;;;;;580.13;284.80;;;;;;;;;;5094301;28;20111;-71
2022/03/13 01:48:18;;;;;;;573.65;276.02;;;;;;;;;;5094750;28;20035;-72
2022/03/13 01:50:49;;;;;;;563.45;282.08;;;;;;;;;;5095927;28;20024;-71
2022/03/13 01:53:16;;;;;;;560.30;266.83;;;;;;;;;;5094572;28;20028;-71
2022/03/13 01:55:42;;;;;;;577.17;279.40;;;;;;;;;;5096106;28;20039;-71
2022/03/13 01:58:08;;;;;;;618.50;309.67;;;;;;;;;;5094479;28;20476;-72
2022/03/13 02:00:34;;;;;;;613.95;294.80;;;;;;;;;;5095377;28;20048;-72
2022/03/13 02:03:00;;;;;;;538.45;273.92;;;;;;;;;;5095675;28;20023;-72
2022/03/13 02:05:29;;;;;;;522.78;261.77;;;;;;;;;;5095683;28;20422;-71
2022/03/13 02:07:56;;;;;;;585.75;289.27;;;;;;;;;;5093869;28;20422;-71
2022/03/13 02:10:22;;;;;;;727.15;334.95;;;;;;;;;;5095374;28;20024;-71
2022/03/13 02:12:48;;;;;;;20.48;9.45;;;;;;;;;;5094245;28;20036;-71
2022/03/13 02:15:15;;;;;;;35.38;18.00;;;;;;;;;;5095162;28;20017;-72
2022/03/13 02:17:41;;;;;;;32.53;14.60;;;;;;;;;;5094040;28;20483;-72
2022/03/13 02:20:13;;;;;;;24.73;12.52;;;;;;;;;;5094098;28;20373;-72
2022/03/13 02:22:39;;;;;;;39.85;19.23;;;;;;;;;;5093429;28;20424;-71
2022/03/13 02:25:06;;;;;;;28.75;14.32;;;;;;;;;;5094078;28;20409;-71
2022/03/13 02:27:33;;;;;;;26.02;12.35;;;;;;;;;;5095196;28;20024;-71
2022/03/13 02:29:59;;;;;;;24.83;10.85;;;;;;;;;;5094785;28;20376;-72
2022/03/13 02:32:25;;;;;;;21.50;9.50;;;;;;;;;;5095438;28;20032;-72
2022/03/13 02:34:55;;;;;;;19.58;9.48;;;;;;;;;;5095052;28;20566;-72
2022/03/13 02:37:36;;;;;;;21.42;8.85;;;;;;;;;;5095058;28;20058;-72
2022/03/13 02:40:03;;;;;;;21.92;10.43;;;;;;;;;;5095045;28;20020;-73
2022/03/13 02:42:29;;;;;;;19.90;11.85;;;;;;;;;;5094494;28;20073;-72
2022/03/13 02:44:55;;;;;;;24.90;11.23;;;;;;;;;;5093566;28;20111;-72
2022/03/13 02:47:21;;;;;;;21.75;10.60;;;;;;;;;;5094822;28;20028;-72
2022/03/13 02:49:47;;;;;;;27.90;10.43;;;;;;;;;;5093085;28;20048;-71
2022/03/13 02:52:14;;;;;;;31.08;19.15;;;;;;;;;;5094638;28;20032;-72
2022/03/13 02:54:40;;;;;;;19.27;10.63;;;;;;;;;;5094193;28;20091;-72
2022/03/13 02:57:07;;;;;;;22.60;9.75;;;;;;;;;;5093880;28;20107;-72
2022/03/13 02:59:33;;;;;;;23.67;8.90;;;;;;;;;;5094848;28;20073;-72
2022/03/13 03:02:01;;;;;;;23.05;8.32;;;;;;;;;;5094593;28;20099;-72
2022/03/13 03:04:27;;;;;;;19.58;8.18;;;;;;;;;;5094267;28;20432;-71
2022/03/13 03:06:59;;;;;;;18.80;9.23;;;;;;;;;;5094474;28;20024;-71
2022/03/13 03:09:25;;;;;;;17.63;8.68;;;;;;;;;;5094749;28;20425;-71
2022/03/13 03:11:52;;;;;;;17.25;7.97;;;;;;;;;;5093658;28;20059;-71
2022/03/13 03:14:19;;;;;;;21.40;10.60;;;;;;;;;;5093108;28;20488;-71
2022/03/13 03:16:45;;;;;;;20.40;10.82;;;;;;;;;;5092959;28;20028;-71
2022/03/13 03:19:12;;;;;;;21.48;9.88;;;;;;;;;;5093798;28;20025;-72
2022/03/13 03:21:38;;;;;;;29.85;8.93;;;;;;;;;;5092845;28;20020;-72
2022/03/13 03:24:11;;;;;;;16.02;7.78;;;;;;;;;;5092832;28;20020;-72
2022/03/13 03:26:38;;;;;;;16.13;7.30;;;;;;;;;;5094291;28;20024;-71
2022/03/13 03:29:04;;;;;;;16.13;6.85;;;;;;;;;;5092832;28;20418;-71
2022/03/13 03:31:30;;;;;;;15.20;5.78;;;;;;;;;;5092272;28;20149;-71
2022/03/13 03:33:57;;;;;;;13.00;5.22;;;;;;;;;;5092698;28;20379;-72
2022/03/13 03:36:23;;;;;;;11.00;5.55;;;;;;;;;;5093923;28;20109;-71
2022/03/13 03:38:49;;;;;;;103.43;80.10;;;;;;;;;;5093514;28;20387;-72
2022/03/13 03:41:15;;;;;;;13.68;6.13;;;;;;;;;;5092621;28;20020;-72
2022/03/13 03:43:42;;;;;;;12.68;5.70;;;;;;;;;;5092585;28;20115;-71
2022/03/13 03:46:08;;;;;;;12.20;6.20;;;;;;;;;;5092034;28;20020;-71
2022/03/13 03:48:34;;;;;;;14.73;7.72;;;;;;;;;;5093846;28;20028;-71
2022/03/13 03:51:00;;;;;;;16.63;8.40;;;;;;;;;;5093832;28;20426;-71
2022/03/13 03:53:27;;;;;;;17.08;7.85;;;;;;;;;;5093255;28;20028;-71
2022/03/13 03:55:53;;;;;;;13.35;6.45;;;;;;;;;;5092417;28;20024;-71
2022/03/13 03:58:21;;;;;;;11.88;6.28;;;;;;;;;;5092422;28;20434;-71
2022/03/13 04:00:48;;;;;;;12.73;7.07;;;;;;;;;;5093232;28;20020;-72
2022/03/13 04:03:14;;;;;;;13.73;5.88;;;;;;;;;;5093594;28;20420;-71
2022/03/13 04:05:41;;;;;;;14.40;6.30;;;;;;;;;;5092241;28;20097;-71
2022/03/13 04:08:07;;;;;;;12.93;5.75;;;;;;;;;;5092952;28;20024;-71
2022/03/13 04:10:33;;;;;;;12.55;5.93;;;;;;;;;;5091799;28;20063;-71
2022/03/13 04:12:59;;;;;;;14.63;6.22;;;;;;;;;;5093501;28;20073;-71
2022/03/13 04:15:25;;;;;;;11.85;6.78;;;;;;;;;;5093053;28;20024;-71
2022/03/13 04:17:55;;;;;;;18.95;8.13;;;;;;;;;;5093381;28;20023;-71
2022/03/13 04:20:21;;;;;;;12.10;5.65;;;;;;;;;;5093352;28;20422;-72
2022/03/13 04:22:47;;;;;;;12.40;6.07;;;;;;;;;;5093183;28;20066;-71
2022/03/13 04:25:14;;;;;;;15.10;6.68;;;;;;;;;;5093337;28;20024;-72
2022/03/13 04:27:41;;;;;;;13.77;6.55;;;;;;;;;;5092929;28;20104;-72
2022/03/13 04:30:08;;;;;;;15.02;7.38;;;;;;;;;;5093337;28;20408;-71
2022/03/13 04:32:34;;;;;;;21.92;9.80;;;;;;;;;;5093277;28;20044;-72
2022/03/13 04:35:00;;;;;;;19.25;10.10;;;;;;;;;;5093143;28;20079;-71
2022/03/13 04:37:27;;;;;;;20.77;10.63;;;;;;;;;;5093512;28;20368;-71
2022/03/13 04:39:53;;;;;;;22.33;10.27;;;;;;;;;;5093230;28;20031;-72
2022/03/13 04:42:20;;;;;;;22.90;10.18;;;;;;;;;;5091482;28;20418;-71
2022/03/13 04:44:47;;;;;;;20.92;9.73;;;;;;;;;;5093206;28;20153;-72
2022/03/13 04:47:13;;;;;;;19.80;9.30;;;;;;;;;;5091881;28;20020;-71
2022/03/13 04:49:39;;;;;;;18.23;9.18;;;;;;;;;;5092970;28;20024;-71
2022/03/13 04:52:06;;;;;;;20.00;8.38;;;;;;;;;;5093094;28;20030;-71
2022/03/13 04:54:32;;;;;;;17.98;8.35;;;;;;;;;;5093219;28;20032;-72
2022/03/13 04:56:58;;;;;;;22.33;9.23;;;;;;;;;;5092903;28;20476;-71
2022/03/13 04:59:25;;;;;;;18.38;7.57;;;;;;;;;;5093245;28;20030;-72
2022/03/13 05:01:52;;;;;;;19.50;8.68;;;;;;;;;;5093008;28;20059;-72
2022/03/13 05:04:18;;;;;;;26.75;9.95;;;;;;;;;;5091265;28;20575;-71
2022/03/13 05:06:45;;;;;;;18.48;8.90;;;;;;;;;;5092978;28;20095;-71
2022/03/13 05:09:11;;;;;;;16.85;8.50;;;;;;;;;;5092900;28;20044;-71
2022/03/13 05:11:40;;;;;;;21.08;8.95;;;;;;;;;;5090933;28;20523;-71
2022/03/13 05:14:07;;;;;;;19.55;9.30;;;;;;;;;;5091593;28;20024;-71
2022/03/13 05:16:33;;;;;;;19.48;9.52;;;;;;;;;;5092969;28;20024;-71
2022/03/13 05:19:00;;;;;;;16.00;8.35;;;;;;;;;;5094120;28;20407;-72
2022/03/13 05:21:26;;;;;;;15.48;8.43;;;;;;;;;;5096600;28;20059;-71
2022/03/13 05:23:53;;;;;;;16.63;8.70;;;;;;;;;;5096571;28;20463;-72
2022/03/13 05:26:20;;;;;;;23.00;10.70;;;;;;;;;;5095193;28;20491;-71
2022/03/13 05:28:46;;;;;;;28.90;14.05;;;;;;;;;;5095229;28;20025;-71
2022/03/13 05:31:13;;;;;;;28.25;11.05;;;;;;;;;;5094655;28;20047;-71
2022/03/13 05:33:39;;;;;;;27.23;11.70;;;;;;;;;;5095016;28;20028;-72
2022/03/13 05:36:07;;;;;;;19.80;8.85;;;;;;;;;;5095008;28;20423;-72
2022/03/13 05:38:34;;;;;;;18.10;8.48;;;;;;;;;;5096062;28;20016;-72
2022/03/13 05:41:01;;;;;;;18.27;9.23;;;;;;;;;;5094970;28;20034;-72
2022/03/13 05:43:31;;;;;;;22.73;10.23;;;;;;;;;;5096217;28;20026;-72
2022/03/13 05:45:57;;;;;;;16.63;9.40;;;;;;;;;;5095772;28;20472;-72
2022/03/13 05:48:25;;;;;;;24.23;10.95;;;;;;;;;;5096198;28;20044;-72
2022/03/13 05:50:52;;;;;;;25.63;11.85;;;;;;;;;;5094578;28;20036;-72
2022/03/13 05:53:18;;;;;;;26.48;11.85;;;;;;;;;;5094140;28;20506;-72
2022/03/13 05:55:44;;;;;;;25.90;11.38;;;;;;;;;;5094836;28;20070;-72
2022/03/13 05:58:13;;;;;;;19.35;10.15;;;;;;;;;;5095860;28;20512;-72
2022/03/13 06:00:40;;;;;;;22.08;10.95;;;;;;;;;;5095401;28;20035;-72
2022/03/13 06:03:06;;;;;;;20.83;9.30;;;;;;;;;;5095857;28;20039;-72
2022/03/13 06:05:35;;;;;;;17.20;8.90;;;;;;;;;;5094390;28;20024;-72
2022/03/13 06:08:01;;;;;;;17.88;9.00;;;;;;;;;;5093923;28;20028;-71
2022/03/13 06:10:28;;;;;;;21.90;9.15;;;;;;;;;;5095480;28;20032;-72
2022/03/13 06:12:55;;;;;;;23.23;11.95;;;;;;;;;;5095065;28;20119;-72
2022/03/13 06:15:22;;;;;;;23.55;13.65;;;;;;;;;;5094220;28;20035;-72
2022/03/13 06:17:49;;;;;;;28.25;14.05;;;;;;;;;;5095482;28;20024;-72
2022/03/13 06:20:16;;;;;;;30.30;16.33;;;;;;;;;;5094945;28;20373;-72
2022/03/13 06:22:46;;;;;;;28.55;18.10;;;;;;;;;;5094042;28;20103;-72
2022/03/13 06:25:13;;;;;;;28.50;13.48;;;;;;;;;;5095287;28;20102;-72
2022/03/13 06:27:40;;;;;;;31.45;16.55;;;;;;;;;;5093813;28;20027;-72
2022/03/13 06:30:13;;;;;;;20.83;12.07;;;;;;;;;;5095367;28;20031;-72
2022/03/13 06:32:43;;;;;;;25.30;13.00;;;;;;;;;;5093781;28;20039;-72
2022/03/13 06:35:10;;;;;;;25.23;12.65;;;;;;;;;;5095001;28;20028;-72
2022/03/13 06:37:37;;;;;;;32.50;17.05;;;;;;;;;;5095015;28;20440;-72
2022/03/13 06:40:03;;;;;;;39.75;16.88;;;;;;;;;;5095119;28;20020;-72
2022/03/13 06:42:29;;;;;;;29.13;14.98;;;;;;;;;;5094497;28;20091;-72
2022/03/13 06:44:56;;;;;;;39.88;18.60;;;;;;;;;;5093593;28;20146;-72
2022/03/13 06:47:23;;;;;;;29.80;15.32;;;;;;;;;;5095166;28;20472;-72
2022/03/13 06:49:49;;;;;;;20.98;11.10;;;;;;;;;;5093159;28;20373;-72
2022/03/13 06:52:15;;;;;;;18.48;9.40;;;;;;;;;;5093436;28;20032;-72
2022/03/13 06:54:42;;;;;;;20.65;9.32;;;;;;;;;;5093360;28;20158;-72
2022/03/13 06:57:09;;;;;;;26.55;10.52;;;;;;;;;;5093048;28;20165;-72
2022/03/13 06:59:35;;;;;;;21.33;11.43;;;;;;;;;;5094637;28;20048;-72
2022/03/13 07:02:02;;;;;;;21.70;11.05;;;;;;;;;;5093281;28;20036;-72
2022/03/13 07:04:28;;;;;;;19.48;10.63;;;;;;;;;;5092828;28;20472;-72
2022/03/13 07:06:54;;;;;;;21.05;10.43;;;;;;;;;;5094497;28;20032;-71
2022/03/13 07:09:20;;;;;;;18.00;10.68;;;;;;;;;;5094212;28;20020;-72
2022/03/13 07:11:47;;;;;;;21.58;11.52;;;;;;;;;;5094188;28;20070;-71
2022/03/13 07:14:14;;;;;;;21.75;11.43;;;;;;;;;;5094681;28;20019;-72
2022/03/13 07:16:41;;;;;;;16.83;9.20;;;;;;;;;;5092654;28;20031;-71
2022/03/13 07:19:07;;;;;;;18.13;9.05;;;;;;;;;;5093011;28;20020;-72
2022/03/13 07:21:33;;;;;;;19.58;9.15;;;;;;;;;;5092850;28;20024;-72
2022/03/13 07:24:00;;;;;;;22.30;11.73;;;;;;;;;;5093818;28;20024;-72
2022/03/13 07:26:26;;;;;;;21.75;11.00;;;;;;;;;;5094241;28;20103;-72
2022/03/13 07:28:52;;;;;;;24.27;13.07;;;;;;;;;;5092771;28;20035;-71
2022/03/13 07:31:19;;;;;;;33.35;18.13;;;;;;;;;;5092283;28;20060;-72
2022/03/13 07:33:45;;;;;;;75.43;35.72;;;;;;;;;;5092718;28;20028;-71
2022/03/13 07:36:12;;;;;;;60.92;29.05;;;;;;;;;;5093916;28;20024;-72
2022/03/13 07:38:38;;;;;;;37.80;19.33;;;;;;;;;;5092323;28;20024;-72
2022/03/13 07:41:05;;;;;;;38.58;21.30;;;;;;;;;;5092239;28;20361;-73
2022/03/13 07:43:33;;;;;;;209.00;191.40;;;;;;;;;;5092570;28;20027;-72
2022/03/13 07:45:59;;;;;;;266.27;240.10;;;;;;;;;;5093339;28;20048;-73
2022/03/13 07:48:25;;;;;;;131.75;113.53;;;;;;;;;;5093780;28;20164;-73
2022/03/13 07:50:51;;;;;;;111.07;100.75;;;;;;;;;;5092260;28;20038;-73
2022/03/13 07:53:18;;;;;;;34.95;31.15;;;;;;;;;;5093302;28;20038;-73
2022/03/13 07:55:44;;;;;;;30.80;23.02;;;;;;;;;;5093702;28;20027;-72
2022/03/13 07:58:11;;;;;;;16.13;9.52;;;;;;;;;;5093769;28;20056;-72
2022/03/13 08:00:37;;;;;;;14.50;8.70;;;;;;;;;;5092028;28;20099;-72
2022/03/13 08:03:03;;;;;;;18.15;9.27;;;;;;;;;;5092278;28;20027;-72
2022/03/13 08:05:29;;;;;;;16.15;8.77;;;;;;;;;;5093456;28;20438;-72
2022/03/13 08:07:56;;;;;;;19.80;10.00;;;;;;;;;;5092239;28;20054;-72
2022/03/13 08:10:24;;;;;;;20.38;18.55;;;;;;;;;;5093284;28;20027;-71
2022/03/13 08:12:51;;;;;;;53.35;49.55;;;;;;;;;;5093030;28;20028;-71
2022/03/13 08:15:17;;;;;;;187.40;173.02;;;;;;;;;;5093431;28;20024;-72
2022/03/13 08:17:44;;;;;;;253.93;230.07;;;;;;;;;;5092176;28;20048;-71
2022/03/13 08:20:10;;;;;;;253.10;228.90;;;;;;;;;;5093076;28;20020;-71
2022/03/13 08:22:37;;;;;;;279.17;248.88;;;;;;;;;;5093461;28;20141;-71
2022/03/13 08:25:03;;;;;;;276.50;246.73;;;;;;;;;;5093392;28;20025;-70
2022/03/13 08:27:30;;;;;;;349.13;271.75;;;;;;;;;;5091407;28;20051;-71
2022/03/13 08:29:57;;;;;;;301.25;258.13;;;;;;;;;;5091988;28;20028;-71
2022/03/13 08:32:23;;;;;;;287.88;253.60;;;;;;;;;;5093170;28;20031;-72
2022/03/13 08:34:52;;;;;;;338.30;274.38;;;;;;;;;;5092950;28;20031;-72
2022/03/13 08:37:18;;;;;;;253.77;226.85;;;;;;;;;;5092018;28;20541;-72
2022/03/13 08:39:44;;;;;;;261.92;235.65;;;;;;;;;;5091949;28;20447;-72
2022/03/13 08:42:11;;;;;;;227.30;209.63;;;;;;;;;;5092767;28;20364;-72
2022/03/13 08:44:37;;;;;;;200.30;186.27;;;;;;;;;;5093179;28;20024;-72
2022/03/13 08:47:04;;;;;;;12.70;6.00;;;;;;;;;;5091868;28;20480;-73
2022/03/13 08:49:30;;;;;;;13.77;5.60;;;;;;;;;;5092701;28;20103;-73
2022/03/13 08:51:57;;;;;;;12.32;6.30;;;;;;;;;;5093082;28;20033;-72
2022/03/13 08:54:23;;;;;;;366.67;290.98;;;;;;;;;;5095572;28;20020;-73
2022/03/13 08:56:49;;;;;;;733.75;490.08;;;;;;;;;;5096496;28;20020;-73
2022/03/13 08:59:19;;;;;;;686.38;414.20;;;;;;;;;;5096940;28;20020;-73
2022/03/13 09:01:45;;;;;;;820.03;406.50;;;;;;;;;;5096525;28;20371;-72
2022/03/13 09:04:11;;;;;;;875.25;437.40;;;;;;;;;;5096836;28;20427;-71
2022/03/13 09:06:39;;;;;;;830.13;410.58;;;;;;;;;;5096947;28;20024;-72
2022/03/13 09:09:08;;;;;;;860.30;420.65;;;;;;;;;;5096430;28;20012;-72
2022/03/13 09:11:35;;;;;;;812.40;401.60;;;;;;;;;;5096481;28;20037;-72
2022/03/13 09:14:01;;;;;;;859.17;408.58;;;;;;;;;;5096717;28;20099;-72
2022/03/13 09:16:28;;;;;;;824.80;393.95;;;;;;;;;;5096300;28;20044;-72
2022/03/13 09:18:54;;;;;;;808.72;392.92;;;;;;;;;;5095388;28;20388;-71
2022/03/13 09:21:22;;;;;;;913.30;424.85;;;;;;;;;;5095237;28;20429;-72
2022/03/13 09:23:48;;;;;;;912.85;403.17;;;;;;;;;;5096616;28;20016;-71
2022/03/13 09:26:15;;;;;;;891.53;390.63;;;;;;;;;;5096513;28;20028;-71
2022/03/13 09:28:41;;;;;;;881.20;380.95;;;;;;;;;;5096433;28;20020;-72
2022/03/13 09:31:08;;;;;;;699.30;325.95;;;;;;;;;;5096044;28;20065;-71
2022/03/13 09:33:34;;;;;;;679.40;330.92;;;;;;;;;;5096390;28;20024;-71
2022/03/13 09:36:01;;;;;;;733.70;330.85;;;;;;;;;;5095007;28;20048;-72
2022/03/13 09:38:27;;;;;;;730.03;328.40;;;;;;;;;;5095863;28;20020;-71
2022/03/13 09:40:55;;;;;;;724.75;327.55;;;;;;;;;;5096179;28;20546;-72
2022/03/13 09:43:22;;;;;;;746.42;332.17;;;;;;;;;;5096309;28;20020;-72
2022/03/13 09:45:49;;;;;;;854.70;364.05;;;;;;;;;;5095798;28;20403;-71
2022/03/13 09:48:18;;;;;;;817.58;355.48;;;;;;;;;;5096105;28;20031;-72
2022/03/13 09:50:45;;;;;;;983.42;430.38;;;;;;;;;;5094696;28;20020;-73
2022/03/13 09:53:12;;;;;;;813.45;363.33;;;;;;;;;;5095471;28;20119;-72
2022/03/13 09:55:38;;;;;;;798.78;365.55;;;;;;;;;;5095877;28;20028;-72
2022/03/13 09:58:08;;;;;;;885.55;374.98;;;;;;;;;;5095758;28;20495;-72
2022/03/13 10:00:36;;;;;;;964.50;400.90;;;;;;;;;;5095781;28;20065;-72
2022/03/13 10:03:05;;;;;;;979.92;403.13;;;;;;;;;;5094576;28;20028;-72
2022/03/13 10:05:41;;;;;;;1033.85;423.55;;;;;;;;;;5095298;28;20024;-71
2022/03/13 10:08:08;;;;;;;1100.05;455.40;;;;;;;;;;5095766;28;20024;-71
2022/03/13 10:10:44;;;;;;;1069.85;467.20;;;;;;;;;;5095382;28;20052;-71
2022/03/13 10:13:10;;;;;;;;;;;;;;;;;;5095092;28;20494;-71
2022/03/13 10:15:36;;;;;;;;;;;;;;;;;;5094630;28;20009;-72
2022/03/13 10:18:06;;;;;;;;;;;;;;;;;;5094666;28;19904;-71
2022/03/13 10:20:32;;;;;;;;;;;;;;;;;;5095740;28;19904;-71
2022/03/13 10:22:58;;;;;;;;;;;;;;;;;;5095799;28;19999;-71
2022/03/13 10:25:24;;;;;;;;;;;;;;;;;;5094375;28;19904;-71
2022/03/13 10:27:50;;;;;;;;;;;;;;;;;;5095362;28;19904;-72
2022/03/13 10:30:16;;;;;;;;;;;;;;;;;;5095662;28;20372;-71
2022/03/13 10:32:43;;;;;;;;;;;;;;;;;;5096051;28;19912;-71
2022/03/13 10:35:10;;;;;;;;;;;;;;;;;;5095188;28;20296;-71
2022/03/13 10:37:37;;;;;;;;;;;;;;;;;;5095637;28;19904;-70
2022/03/13 10:40:03;;;;;;;;;;;;;;;;;;5095253;28;19972;-71
2022/03/13 10:42:29;;;;;;;;;;;;;;;;;;5094977;28;20364;-70
2022/03/13 10:45:03;;;;;;;;;;;;;;;;;;5094128;28;19904;-71
2022/03/13 10:47:31;;;;;;;;;;;;;;;;;;5095025;28;19904;-70
2022/03/13 10:49:57;;;;;;;;;;;;;;;;;;5093955;28;19912;-72
2022/03/13 10:52:25;;;;;;;;;;;;;;;;;;5095164;28;20003;-71
2022/03/13 10:54:51;;;;;;;;;;;;;;;;;;5094705;28;19908;-71
2022/03/13 10:57:18;;;;;;;;;;;;;;;;;;5094764;28;19999;-72
2022/03/13 10:59:44;;;;;;;;;;;;;;;;;;5095211;28;20367;-71
2022/03/13 11:02:12;;;;;;;;;;;;;;;;;;5094522;28;19904;-71
2022/03/13 11:04:38;;;;;;;;;;;;;;;;;;5093700;28;19970;-71
2022/03/13 11:07:05;;;;;;;;;;;;;;;;;;5093584;28;19911;-72
2022/03/13 11:09:31;;;;;;;;;;;;;;;;;;5094573;28;19908;-70
2022/03/13 11:12:10;;;;;;;;;;;;;;;;;;5093436;28;19939;-70
2022/03/13 11:14:37;;;;;;;;;;;;;;;;;;5095358;28;20301;-70
2022/03/13 11:17:03;;;;;;;;;;;;;;;;;;5092282;28;20422;-71
2022/03/13 11:19:29;;;;;;;;;;;;;;;;;;5094972;28;19904;-71
2022/03/13 11:21:55;;;;;;;;;;;;;;;;;;5094661;28;19958;-70
2022/03/13 11:27:10;;;;;;;11.30;5.55;;;;;;;;;;5071529;28;20468;-71
2022/03/13 11:30:42;;;;;;;12.93;6.25;;;;;;;;;;5111223;27;20425;-72
2022/03/13 11:33:09;;;;;;;11.55;5.47;;;;;;;;;;5111435;28;20031;-71
2022/03/13 11:36:45;;;;;;;448.40;399.70;;;;;;;;;;5111654;27;20771;-72
2022/03/13 11:39:13;;;;;;;;;;;;;;;;;;5111631;28;19912;-72
2022/03/13 11:45:29;;;;;;;724.75;640.38;;;;;;;;;;5070440;28;20481;-72
2022/03/13 11:47:55;;;;;;;;;;;;;;;;;;5071230;28;20108;-71
2022/03/13 11:51:28;;;;;;;773.65;583.30;;;;;;;;;;5070728;28;20454;-70
2022/03/13 11:53:54;;;;;;;957.95;576.00;;;;;;;;;;5070691;28;20028;-70
2022/03/13 11:56:30;;;;;;;1116.78;479.88;;;;;;;;;;5069370;28;20477;-71
2022/03/13 11:58:58;;;;;;;291.25;205.75;;;;;;;;;;5067625;28;20537;-71
2022/03/13 12:06:02;;;;;;;;;;;;;;;;;;5111661;27;19916;-71
2022/03/13 12:12:53;;;;;;;;;;;;;;;;;;5091202;27;19923;-72
2022/03/13 12:17:15;;;;;;;;;;;;;;;;;;5091303;27;20406;-70
2022/03/13 12:21:55;;;;;;;;;;;;;;;;;;5112240;27;19916;-70
2022/03/13 12:24:22;;;;;;;;;;;;;;;;;;5111625;28;19918;-70
2022/03/13 12:26:48;;;;;;;;;;;;;;;;;;5109864;28;19973;-71
2022/03/13 12:29:15;;;;;;;;;;;;;;;;;;5111430;28;19912;-70
2022/03/13 12:31:41;;;;;;;;;;;;;;;;;;5111557;28;19908;-71
2022/03/13 12:35:57;;;;;;;;;;;;;;;;;;5092074;27;19916;-71
2022/03/13 12:38:23;;;;;;;;;;;;;;;;;;5089944;28;19966;-71
2022/03/13 12:40:49;;;;;;;;;;;;;;;;;;5089516;28;19908;-71
2022/03/13 12:44:50;;;;;;;;;;;;;;;;;;5111878;27;20857;-70
2022/03/13 12:48:40;;;;;;;;;;;;;;;;;;5111520;27;20389;-70
2022/03/13 12:54:20;;;;;;;;;;;;;;;;;;5112020;27;19923;-71
2022/03/13 12:56:47;;;;;;;;;;;;;;;;;;5110469;28;19938;-71
2022/03/13 13:00:40;;;;;;;;;;;;;;;;;;5091996;27;20349;-72
2022/03/13 13:05:51;;;;;;;;;;;;;;;;;;5091954;27;19912;-71
2022/03/13 13:08:17;;;;;;;;;;;;;;;;;;5091195;28;19912;-71
2022/03/13 13:13:07;;;;;;;;;;;;;;;;;;5091773;27;20287;-71
2022/03/13 13:15:34;;;;;;;;;;;;;;;;;;5091352;28;19920;-72
2022/03/13 13:18:00;;;;;;;;;;;;;;;;;;5091535;28;19938;-74
2022/03/13 13:20:26;;;;;;;;;;;;;;;;;;5091154;28;19908;-70
2022/03/13 13:22:53;;;;;;;;;;;;;;;;;;5090716;28;19908;-70
2022/03/13 13:25:40;;;;;;;;;;;;;;;;;;5091830;27;19912;-70
2022/03/13 13:29:49;;;;;;;;;;;;;;;;;;5111652;27;20348;-72
2022/03/13 13:32:15;;;;;;;;;;;;;;;;;;5111715;28;19936;-72
2022/03/13 13:34:44;;;;;;;;;;;;;;;;;;5111686;28;20344;-72
2022/03/13 13:37:10;;;;;;;;;;;;;;;;;;5109821;28;19986;-73
2022/03/13 13:40:48;;;;;;;;;;;;;;;;;;5111093;27;20363;-72
2022/03/13 13:43:25;;;;;;;51.42;48.88;;;;;;;;;;5110392;28;20397;-72
2022/03/13 13:45:51;;;;;;;;;;;;;;;;;;5110418;28;20034;-72
2022/03/13 13:48:17;;;;;;;;;;;;;;;;;;5110424;28;19910;-72
2022/03/13 13:53:15;;;;;;;;;;;;;;;;;;5091557;27;19916;-73
2022/03/13 13:56:09;;;;;;;;;;;;;;;;;;5111819;27;20371;-73
2022/03/13 13:59:22;;;;;;;;;;;;;;;;;;5111165;27;20268;-71
2022/03/13 14:01:48;;;;;;;;;;;;;;;;;;5111575;28;19926;-71
2022/03/13 14:04:14;;;;;;;;;;;;;;;;;;5110173;28;20256;-71
2022/03/13 14:06:40;;;;;;;;;;;;;;;;;;5109794;28;19987;-71
2022/03/13 14:09:06;;;;;;;;;;;;;;;;;;5111871;28;19908;-70
2022/03/13 14:11:32;;;;;;;;;;;;;;;;;;5109839;28;19908;-71
2022/03/13 14:14:00;;;;;;;;;;;;;;;;;;5110136;28;19909;-72
2022/03/13 14:16:26;;;;;;;;;;;;;;;;;;5111428;28;19908;-72
2022/03/13 14:21:08;;;;;;;;;;;;;;;;;;5092042;27;20378;-72
2022/03/13 14:24:15;;;;;;;;;;;;;;;;;;5112421;27;20299;-71
2022/03/13 14:26:41;;;;;;;;;;;;;;;;;;5111260;28;19912;-72
2022/03/13 14:29:07;;;;;;;;;;;;;;;;;;5111572;28;19994;-73
2022/03/13 14:31:33;;;;;;;;;;;;;;;;;;5111523;28;19908;-71
2022/03/13 14:33:59;;;;;;;;;;;;;;;;;;5111240;28;19914;-72
2022/03/13 14:36:25;;;;;;;;;;;;;;;;;;5110260;28;19936;-72
2022/03/13 14:38:51;;;;;;;;;;;;;;;;;;5111302;28;19908;-71
2022/03/13 14:41:17;;;;;;;;;;;;;;;;;;5110991;28;20251;-73
2022/03/13 14:43:44;;;;;;;;;;;;;;;;;;5110041;28;19923;-73
2022/03/13 14:46:10;;;;;;;;;;;;;;;;;;5111718;28;20013;-73
2022/03/13 14:48:36;;;;;;;;;;;;;;;;;;5110846;28;19908;-71
2022/03/13 14:51:02;;;;;;;;;;;;;;;;;;5111203;28;19908;-71
2022/03/13 14:53:29;;;;;;;;;;;;;;;;;;5111258;28;19912;-72
2022/03/13 14:55:55;;;;;;;;;;;;;;;;;;5110801;28;19957;-72
2022/03/13 14:58:21;;;;;;;;;;;;;;;;;;5111494;28;19962;-72
2022/03/13 15:00:47;;;;;;;;;;;;;;;;;;5109293;28;19908;-74
2022/03/13 15:03:13;;;;;;;;;;;;;;;;;;5109756;28;19923;-72
2022/03/13 15:05:39;;;;;;;;;;;;;;;;;;5109933;28;19981;-72
2022/03/13 15:08:05;;;;;;;;;;;;;;;;;;5110495;28;20002;-72
2022/03/13 15:10:31;;;;;;;;;;;;;;;;;;5111192;28;19922;-72
2022/03/13 15:12:58;;;;;;;;;;;;;;;;;;5110654;28;20368;-72
2022/03/13 15:15:24;;;;;;;;;;;;;;;;;;5110334;28;19954;-73
2022/03/13 15:17:52;;;;;;;;;;;;;;;;;;5109392;28;19908;-72
2022/03/13 15:20:18;;;;;;;;;;;;;;;;;;5110715;28;19908;-73
2022/03/13 15:22:44;;;;;;;;;;;;;;;;;;5108557;28;19976;-72
2022/03/13 15:25:10;;;;;;;;;;;;;;;;;;5109226;28;19915;-72
2022/03/13 15:27:36;;;;;;;;;;;;;;;;;;5109516;28;19908;-72
2022/03/13 15:30:02;;;;;;;;;;;;;;;;;;5108736;28;20390;-72
2022/03/13 15:32:29;;;;;;;;;;;;;;;;;;5110433;28;19955;-72
2022/03/13 15:34:55;;;;;;;;;;;;;;;;;;5099203;28;19917;-72
2022/03/13 15:37:21;;;;;;;;;;;;;;;;;;5095067;28;20360;-72